createdAt,value
2023-05-02T00:00:03.352Z,535.00
2023-05-02T00:01:03.085Z,521.00
2023-05-02T00:02:03.104Z,524.00
2023-05-02T00:03:03.165Z,526.00
2023-05-02T00:04:03.172Z,514.00
2023-05-02T00:05:04.028Z,530.00
2023-05-02T00:06:03.111Z,522.00
2023-05-02T00:07:03.046Z,533.00
2023-05-02T00:08:04.051Z,521.00
2023-05-02T00:09:03.132Z,520.00
2023-05-02T00:10:03.422Z,537.00
2023-05-02T00:11:03.086Z,522.00
2023-05-02T00:12:03.102Z,526.00
2023-05-02T00:13:04.095Z,521.00
2023-05-02T00:14:03.171Z,521.00
2023-05-02T00:15:03.167Z,532.00
2023-05-02T00:16:04.117Z,528.00
2023-05-02T00:17:03.185Z,521.00
2023-05-02T00:18:04.181Z,528.00
2023-05-02T00:19:04.137Z,525.00
2023-05-02T00:20:04.215Z,527.00
2023-05-02T00:21:03.149Z,520.00
2023-05-02T00:22:04.158Z,517.00
2023-05-02T00:23:03.185Z,522.00
2023-05-02T00:24:04.189Z,526.00
2023-05-02T00:25:04.196Z,527.00
2023-05-02T00:26:04.203Z,526.00
2023-05-02T00:27:04.188Z,529.00
2023-05-02T00:28:03.215Z,531.00
2023-05-02T00:29:04.210Z,528.00
2023-05-02T00:30:03.476Z,529.00
2023-05-02T00:31:03.342Z,518.00
2023-05-02T00:32:04.244Z,532.00
2023-05-02T00:33:04.348Z,536.00
2023-05-02T00:34:04.289Z,524.00
2023-05-02T00:35:04.309Z,527.00
2023-05-02T00:36:04.307Z,532.00
2023-05-02T00:37:04.361Z,521.00
2023-05-02T00:38:04.298Z,522.00
2023-05-02T00:39:04.326Z,535.00
2023-05-02T00:40:04.329Z,519.00
2023-05-02T00:41:04.335Z,532.00
2023-05-02T00:42:04.370Z,533.00
2023-05-02T00:43:03.357Z,532.00
2023-05-02T00:44:03.384Z,524.00
2023-05-02T00:45:04.414Z,522.00
2023-05-02T00:46:03.415Z,523.00
2023-05-02T00:47:04.420Z,524.00
2023-05-02T00:48:03.425Z,522.00
2023-05-02T00:49:03.398Z,513.00
2023-05-02T00:50:04.447Z,523.00
2023-05-02T00:51:04.432Z,522.00
2023-05-02T00:52:03.463Z,526.00
2023-05-02T00:53:04.485Z,527.00
2023-05-02T00:54:03.481Z,513.00
2023-05-02T00:55:04.537Z,530.00
2023-05-02T00:56:03.704Z,526.00
2023-05-02T00:57:03.529Z,526.00
2023-05-02T00:58:04.517Z,527.00
2023-05-02T00:59:04.548Z,532.00
2023-05-02T01:00:04.614Z,526.00
2023-05-02T01:01:03.610Z,524.00
2023-05-02T01:02:03.631Z,534.00
2023-05-02T01:03:05.453Z,508.00
2023-05-02T01:04:04.763Z,521.00
2023-05-02T01:05:03.667Z,519.00
2023-05-02T01:06:04.774Z,525.00
2023-05-02T01:07:04.708Z,522.00
2023-05-02T01:08:03.682Z,517.00
2023-05-02T01:09:04.728Z,531.00
2023-05-02T01:10:04.785Z,529.00
2023-05-02T01:11:05.311Z,517.00
2023-05-02T01:12:04.747Z,533.00
2023-05-02T01:13:04.766Z,524.00
2023-05-02T01:14:04.780Z,536.00
2023-05-02T01:15:03.780Z,527.00
2023-05-02T01:16:03.864Z,522.00
2023-05-02T01:17:04.823Z,519.00
2023-05-02T01:18:04.891Z,534.00
2023-05-02T01:19:03.856Z,520.00
2023-05-02T01:20:03.923Z,524.00
2023-05-02T01:21:04.849Z,529.00
2023-05-02T01:22:04.859Z,527.00
2023-05-02T01:23:04.887Z,533.00
2023-05-02T01:24:03.855Z,519.00
2023-05-02T01:25:04.891Z,520.00
2023-05-02T01:26:03.882Z,523.00
2023-05-02T01:27:03.908Z,504.00
2023-05-02T01:28:04.917Z,525.00
2023-05-02T01:29:04.932Z,504.00
2023-05-02T01:30:04.978Z,509.00
2023-05-02T01:31:03.961Z,517.00
2023-05-02T01:32:05.017Z,515.00
2023-05-02T01:33:05.017Z,531.00
2023-05-02T01:34:05.014Z,521.00
2023-05-02T01:35:05.077Z,527.00
2023-05-02T01:36:05.075Z,522.00
2023-05-02T01:37:05.025Z,525.00
2023-05-02T01:38:04.050Z,539.00
2023-05-02T01:39:05.075Z,516.00
2023-05-02T01:40:04.108Z,511.00
2023-05-02T01:41:05.087Z,515.00
2023-05-02T01:42:04.118Z,512.00
2023-05-02T01:43:04.108Z,516.00
2023-05-02T01:44:04.119Z,533.00
2023-05-02T01:45:04.135Z,522.00
2023-05-02T01:46:05.144Z,513.00
2023-05-02T01:47:04.164Z,521.00
2023-05-02T01:48:04.202Z,517.00
2023-05-02T01:49:04.191Z,518.00
2023-05-02T01:50:05.206Z,531.00
2023-05-02T01:51:05.207Z,520.00
2023-05-02T01:52:05.192Z,511.00
2023-05-02T01:53:04.206Z,528.00
2023-05-02T01:54:04.208Z,521.00
2023-05-02T01:55:05.245Z,519.00
2023-05-02T01:56:04.212Z,522.00
2023-05-02T01:57:05.219Z,526.00
2023-05-02T01:58:05.228Z,519.00
2023-05-02T01:59:05.223Z,529.00
2023-05-02T02:00:05.341Z,525.00
2023-05-02T02:01:05.969Z,516.00
2023-05-02T02:02:04.268Z,506.00
2023-05-02T02:03:05.283Z,523.00
2023-05-02T02:04:05.643Z,523.00
2023-05-02T02:05:05.301Z,529.00
2023-05-02T02:06:04.395Z,513.00
2023-05-02T02:07:05.314Z,521.00
2023-05-02T02:08:05.309Z,518.00
2023-05-02T02:09:05.329Z,521.00
2023-05-02T02:10:05.385Z,521.00
2023-05-02T02:11:04.368Z,519.00
2023-05-02T02:12:05.358Z,519.00
2023-05-02T02:13:04.372Z,518.00
2023-05-02T02:14:05.395Z,526.00
2023-05-02T02:15:05.412Z,528.00
2023-05-02T02:16:05.414Z,520.00
2023-05-02T02:17:04.493Z,520.00
2023-05-02T02:18:04.487Z,518.00
2023-05-02T02:19:05.453Z,530.00
2023-05-02T02:20:05.499Z,518.00
2023-05-02T02:21:05.458Z,517.00
2023-05-02T02:22:04.469Z,521.00
2023-05-02T02:23:05.492Z,517.00
2023-05-02T02:24:05.482Z,523.00
2023-05-02T02:25:05.503Z,524.00
2023-05-02T02:26:05.493Z,508.00
2023-05-02T02:27:05.487Z,520.00
2023-05-02T02:28:04.511Z,521.00
2023-05-02T02:29:04.561Z,514.00
2023-05-02T02:30:04.528Z,514.00
2023-05-02T02:31:05.611Z,510.00
2023-05-02T02:32:04.576Z,511.00
2023-05-02T02:33:04.577Z,513.00
2023-05-02T02:34:04.576Z,507.00
2023-05-02T02:35:04.540Z,525.00
2023-05-02T02:36:04.576Z,522.00
2023-05-02T02:37:04.589Z,520.00
2023-05-02T02:38:05.575Z,520.00
2023-05-02T02:39:05.594Z,524.00
2023-05-02T02:40:05.597Z,524.00
2023-05-02T02:41:04.620Z,513.00
2023-05-02T02:42:05.635Z,515.00
2023-05-02T02:43:05.616Z,515.00
2023-05-02T02:44:04.610Z,530.00
2023-05-02T02:45:04.691Z,517.00
2023-05-02T02:46:05.725Z,528.00
2023-05-02T02:47:05.672Z,521.00
2023-05-02T02:48:04.690Z,508.00
2023-05-02T02:49:04.665Z,525.00
2023-05-02T02:50:05.668Z,518.00
2023-05-02T02:51:04.686Z,522.00
2023-05-02T02:52:05.681Z,506.00
2023-05-02T02:53:05.733Z,523.00
2023-05-02T02:54:15.491Z,520.00
2023-05-02T02:55:05.732Z,520.00
2023-05-02T02:56:04.688Z,521.00
2023-05-02T02:57:05.671Z,521.00
2023-05-02T02:58:05.691Z,523.00
2023-05-02T02:59:04.673Z,526.00
2023-05-02T03:00:05.678Z,518.00
2023-05-02T03:01:05.650Z,517.00
2023-05-02T03:02:04.667Z,516.00
2023-05-02T03:03:05.642Z,521.00
2023-05-02T03:04:05.669Z,503.00
2023-05-02T03:05:05.620Z,512.00
2023-05-02T03:06:05.705Z,514.00
2023-05-02T03:07:04.630Z,512.00
2023-05-02T03:08:04.612Z,517.00
2023-05-02T03:09:04.620Z,516.00
2023-05-02T03:10:04.613Z,510.00
2023-05-02T03:11:04.607Z,510.00
2023-05-02T03:12:04.569Z,523.00
2023-05-02T03:13:04.570Z,515.00
2023-05-02T03:14:04.576Z,523.00
2023-05-02T03:15:05.553Z,523.00
2023-05-02T03:16:05.592Z,514.00
2023-05-02T03:17:05.584Z,510.00
2023-05-02T03:18:04.570Z,513.00
2023-05-02T03:19:04.514Z,526.00
2023-05-02T03:20:05.507Z,515.00
2023-05-02T03:21:04.510Z,512.00
2023-05-02T03:22:05.524Z,514.00
2023-05-02T03:23:05.506Z,508.00
2023-05-02T03:24:04.561Z,515.00
2023-05-02T03:25:04.475Z,515.00
2023-05-02T03:26:05.482Z,517.00
2023-05-02T03:27:05.530Z,517.00
2023-05-02T03:28:04.448Z,515.00
2023-05-02T03:29:04.465Z,514.00
2023-05-02T03:30:05.464Z,518.00
2023-05-02T03:31:05.503Z,513.00
2023-05-02T03:32:05.549Z,514.00
2023-05-02T03:33:04.458Z,525.00
2023-05-02T03:34:04.415Z,518.00
2023-05-02T03:35:05.424Z,518.00
2023-05-02T03:36:05.432Z,515.00
2023-05-02T03:37:05.408Z,519.00
2023-05-02T03:38:04.441Z,514.00
2023-05-02T03:39:04.399Z,510.00
2023-05-02T03:40:05.383Z,515.00
2023-05-02T03:41:05.377Z,523.00
2023-05-02T03:42:04.377Z,524.00
2023-05-02T03:43:04.368Z,513.00
2023-05-02T03:44:05.364Z,515.00
2023-05-02T03:45:04.385Z,508.00
2023-05-02T03:46:05.345Z,513.00
2023-05-02T03:47:05.465Z,521.00
2023-05-02T03:48:04.388Z,511.00
2023-05-02T03:49:05.731Z,510.00
2023-05-02T03:50:05.320Z,518.00
2023-05-02T03:51:05.304Z,510.00
2023-05-02T03:52:05.300Z,519.00
2023-05-02T03:53:05.320Z,506.00
2023-05-02T03:54:05.280Z,505.00
2023-05-02T03:55:05.260Z,508.00
2023-05-02T03:56:05.265Z,518.00
2023-05-02T03:57:05.261Z,512.00
2023-05-02T03:58:05.262Z,517.00
2023-05-02T03:59:04.273Z,520.00
2023-05-02T04:00:04.255Z,524.00
2023-05-02T04:01:05.222Z,509.00
2023-05-02T04:02:05.285Z,507.00
2023-05-02T04:03:05.306Z,527.00
2023-05-02T04:04:05.276Z,518.00
2023-05-02T04:05:05.253Z,516.00
2023-05-02T04:06:05.303Z,512.00
2023-05-02T04:07:05.200Z,510.00
2023-05-02T04:08:05.182Z,524.00
2023-05-02T04:09:05.178Z,519.00
2023-05-02T04:10:05.165Z,520.00
2023-05-02T04:11:04.175Z,512.00
2023-05-02T04:12:04.158Z,515.00
2023-05-02T04:13:05.164Z,522.00
2023-05-02T04:14:05.171Z,503.00
2023-05-02T04:15:04.291Z,506.00
2023-05-02T04:16:04.204Z,508.00
2023-05-02T04:17:04.381Z,504.00
2023-05-02T04:18:04.387Z,520.00
2023-05-02T04:19:05.209Z,510.00
2023-05-02T04:20:05.498Z,510.00
2023-05-02T04:21:05.243Z,517.00
2023-05-02T04:22:05.244Z,510.00
2023-05-02T04:23:05.276Z,511.00
2023-05-02T04:24:04.275Z,510.00
2023-05-02T04:25:04.284Z,508.00
2023-05-02T04:26:05.303Z,517.00
2023-05-02T04:27:04.335Z,510.00
2023-05-02T04:28:04.324Z,515.00
2023-05-02T04:29:05.328Z,507.00
2023-05-02T04:30:04.340Z,522.00
2023-05-02T04:31:05.470Z,517.00
2023-05-02T04:32:05.416Z,522.00
2023-05-02T04:33:04.402Z,511.00
2023-05-02T04:34:05.447Z,508.00
2023-05-02T04:35:04.431Z,514.00
2023-05-02T04:36:05.525Z,545.00
2023-05-02T04:37:05.436Z,542.00
2023-05-02T04:38:05.481Z,544.00
2023-05-02T04:39:04.496Z,528.00
2023-05-02T04:40:05.531Z,521.00
2023-05-02T04:41:08.905Z,523.00
2023-05-02T04:42:04.519Z,523.00
2023-05-02T04:43:05.551Z,523.00
2023-05-02T04:44:05.520Z,504.00
2023-05-02T04:45:05.484Z,511.00
2023-05-02T04:46:05.515Z,522.00
2023-05-02T04:47:04.547Z,521.00
2023-05-02T04:48:05.514Z,512.00
2023-05-02T04:49:05.465Z,520.00
2023-05-02T04:50:05.477Z,506.00
2023-05-02T04:51:05.453Z,518.00
2023-05-02T04:52:05.439Z,519.00
2023-05-02T04:53:05.444Z,507.00
2023-05-02T04:54:05.462Z,517.00
2023-05-02T04:55:05.438Z,511.00
2023-05-02T04:56:05.442Z,519.00
2023-05-02T04:57:04.450Z,500.00
2023-05-02T04:58:05.405Z,512.00
2023-05-02T04:59:05.402Z,521.00
2023-05-02T05:00:05.395Z,522.00
2023-05-02T05:01:05.453Z,510.00
2023-05-02T05:02:04.584Z,522.00
2023-05-02T05:03:04.604Z,507.00
2023-05-02T05:04:04.536Z,527.00
2023-05-02T05:05:04.583Z,515.00
2023-05-02T05:06:04.570Z,521.00
2023-05-02T05:07:05.900Z,519.00
2023-05-02T05:08:05.515Z,506.00
2023-05-02T05:09:05.546Z,518.00
2023-05-02T05:10:05.570Z,512.00
2023-05-02T05:11:04.568Z,514.00
2023-05-02T05:12:06.271Z,522.00
2023-05-02T05:13:06.356Z,504.00
2023-05-02T05:14:05.806Z,520.00
2023-05-02T05:15:05.712Z,518.00
2023-05-02T05:16:05.712Z,530.00
2023-05-02T05:17:04.664Z,514.00
2023-05-02T05:18:05.771Z,515.00
2023-05-02T05:19:05.713Z,521.00
2023-05-02T05:20:04.754Z,511.00
2023-05-02T05:21:04.762Z,523.00
2023-05-02T05:22:04.813Z,520.00
2023-05-02T05:23:05.832Z,531.00
2023-05-02T05:24:04.913Z,532.00
2023-05-02T05:25:05.004Z,543.00
2023-05-02T05:26:05.916Z,541.00
2023-05-02T05:27:05.961Z,545.00
2023-05-02T05:28:05.010Z,548.00
2023-05-02T05:29:06.098Z,545.00
2023-05-02T05:30:05.056Z,541.00
2023-05-02T05:31:06.154Z,542.00
2023-05-02T05:32:06.384Z,558.00
2023-05-02T05:33:05.253Z,549.00
2023-05-02T05:34:06.305Z,563.00
2023-05-02T05:35:07.492Z,562.00
2023-05-02T05:36:06.698Z,574.00
2023-05-02T05:37:05.519Z,567.00
2023-05-02T05:38:06.469Z,571.00
2023-05-02T05:39:06.819Z,576.00
2023-05-02T05:40:07.985Z,570.00
2023-05-02T05:41:06.856Z,574.00
2023-05-02T05:42:07.624Z,574.00
2023-05-02T05:43:07.008Z,575.00
2023-05-02T05:44:06.720Z,575.00
2023-05-02T05:45:07.036Z,585.00
2023-05-02T05:46:07.202Z,602.00
2023-05-02T05:47:05.797Z,597.00
2023-05-02T05:48:06.721Z,601.00
2023-05-02T05:49:07.220Z,602.00
2023-05-02T05:50:06.822Z,607.00
2023-05-02T05:51:06.779Z,608.00
2023-05-02T05:52:07.661Z,618.00
2023-05-02T05:53:06.710Z,623.00
2023-05-02T05:54:06.535Z,628.00
2023-05-02T05:55:06.388Z,632.00
2023-05-02T05:56:07.580Z,637.00
2023-05-02T05:57:06.713Z,640.00
2023-05-02T05:58:06.705Z,652.00
2023-05-02T05:59:06.964Z,663.00
2023-05-02T06:00:06.662Z,667.00
2023-05-02T06:01:07.682Z,673.00
2023-05-02T06:02:07.838Z,697.00
2023-05-02T06:03:08.083Z,715.00
2023-05-02T06:04:05.832Z,716.00
2023-05-02T06:05:07.261Z,717.00
2023-05-02T06:06:06.786Z,705.00
2023-05-02T06:07:05.714Z,700.00
2023-05-02T06:08:06.695Z,666.00
2023-05-02T06:09:05.701Z,652.00
2023-05-02T06:10:05.751Z,659.00
2023-05-02T06:11:05.653Z,674.00
2023-05-02T06:12:06.683Z,665.00
2023-05-02T06:13:06.677Z,660.00
2023-05-02T06:14:05.656Z,660.00
2023-05-02T06:15:05.657Z,646.00
2023-05-02T06:16:05.682Z,658.00
2023-05-02T06:17:06.633Z,655.00
2023-05-02T06:18:06.646Z,663.00
2023-05-02T06:19:12.622Z,661.00
2023-05-02T06:20:05.581Z,662.00
2023-05-02T06:21:05.631Z,662.00
2023-05-02T06:22:05.638Z,663.00
2023-05-02T06:23:06.574Z,663.00
2023-05-02T06:24:06.558Z,655.00
2023-05-02T06:25:06.587Z,680.00
2023-05-02T06:26:05.599Z,674.00
2023-05-02T06:27:05.564Z,664.00
2023-05-02T06:28:05.537Z,669.00
2023-05-02T06:29:05.541Z,679.00
2023-05-02T06:30:06.531Z,664.00
2023-05-02T06:31:05.553Z,664.00
2023-05-02T06:32:06.720Z,664.00
2023-05-02T06:33:06.533Z,666.00
2023-05-02T06:34:06.502Z,678.00
2023-05-02T06:35:06.502Z,664.00
2023-05-02T06:36:06.478Z,657.00
2023-05-02T06:37:06.483Z,666.00
2023-05-02T06:38:06.487Z,678.00
2023-05-02T06:39:05.461Z,697.00
2023-05-02T06:40:05.480Z,681.00
2023-05-02T06:41:05.461Z,691.00
2023-05-02T06:42:06.451Z,679.00
2023-05-02T06:43:05.430Z,706.00
2023-05-02T06:44:05.424Z,673.00
2023-05-02T06:45:05.412Z,700.00
2023-05-02T06:46:05.409Z,697.00
2023-05-02T06:47:06.484Z,714.00
2023-05-02T06:48:06.447Z,694.00
2023-05-02T06:49:06.400Z,701.00
2023-05-02T06:50:06.377Z,723.00
2023-05-02T06:51:05.390Z,769.00
2023-05-02T06:52:05.487Z,814.00
2023-05-02T06:53:06.362Z,814.00
2023-05-02T06:54:06.400Z,890.00
2023-05-02T06:55:06.349Z,1012.00
2023-05-02T06:56:06.341Z,1010.00
2023-05-02T06:57:05.500Z,1079.00
2023-05-02T06:58:06.337Z,1052.00
2023-05-02T06:59:06.329Z,1179.00
2023-05-02T07:00:06.310Z,1213.00
2023-05-02T07:01:06.385Z,1271.00
2023-05-02T07:02:06.376Z,1204.00
2023-05-02T07:03:06.452Z,1096.00
2023-05-02T07:04:06.489Z,1027.00
2023-05-02T07:05:05.467Z,979.00
2023-05-02T07:06:06.589Z,924.00
2023-05-02T07:07:06.560Z,907.00
2023-05-02T07:08:06.568Z,850.00
2023-05-02T07:09:06.619Z,848.00
2023-05-02T07:10:05.642Z,864.00
2023-05-02T07:11:05.615Z,809.00
2023-05-02T07:12:06.953Z,840.00
2023-05-02T07:13:05.662Z,838.00
2023-05-02T07:14:06.674Z,850.00
2023-05-02T07:15:06.680Z,805.00
2023-05-02T07:16:05.706Z,833.00
2023-05-02T07:17:05.831Z,820.00
2023-05-02T07:18:05.767Z,868.00
2023-05-02T07:19:05.751Z,761.00
2023-05-02T07:20:05.915Z,787.00
2023-05-02T07:21:06.816Z,760.00
2023-05-02T07:22:05.852Z,799.00
2023-05-02T07:23:06.894Z,788.00
2023-05-02T07:24:06.960Z,829.00
2023-05-02T07:25:06.947Z,809.00
2023-05-02T07:26:07.043Z,745.00
2023-05-02T07:27:07.040Z,740.00
2023-05-02T07:28:07.081Z,718.00
2023-05-02T07:29:07.115Z,691.00
2023-05-02T07:30:06.151Z,659.00
2023-05-02T07:31:07.223Z,792.00
2023-05-02T07:32:07.346Z,864.00
2023-05-02T07:33:07.367Z,961.00
2023-05-02T07:34:06.363Z,916.00
2023-05-02T07:35:06.392Z,865.00
2023-05-02T07:36:07.452Z,805.00
2023-05-02T07:37:06.508Z,764.00
2023-05-02T07:38:06.562Z,741.00
2023-05-02T07:39:06.643Z,733.00
2023-05-02T07:40:07.680Z,766.00
2023-05-02T07:41:06.719Z,712.00
2023-05-02T07:42:07.808Z,751.00
2023-05-02T07:43:09.876Z,670.00
2023-05-02T07:44:07.823Z,671.00
2023-05-02T07:45:07.831Z,681.00
2023-05-02T07:46:06.936Z,724.00
2023-05-02T07:47:06.795Z,797.00
2023-05-02T07:48:07.060Z,939.00
2023-05-02T07:49:07.792Z,1003.00
2023-05-02T07:50:07.790Z,1058.00
2023-05-02T07:51:07.796Z,1131.00
2023-05-02T07:52:07.789Z,1169.00
2023-05-02T07:53:08.017Z,1208.00
2023-05-02T07:54:07.754Z,1319.00
2023-05-02T07:55:07.750Z,1342.00
2023-05-02T07:56:06.737Z,1318.00
2023-05-02T07:57:07.739Z,1192.00
2023-05-02T07:58:06.821Z,1134.00
2023-05-02T07:59:07.734Z,1139.00
2023-05-02T08:00:07.727Z,1152.00
2023-05-02T08:01:07.736Z,1150.00
2023-05-02T08:02:07.745Z,1099.00
2023-05-02T08:03:07.823Z,1074.00
2023-05-02T08:04:07.866Z,958.00
2023-05-02T08:05:07.859Z,951.00
2023-05-02T08:06:07.797Z,908.00
2023-05-02T08:07:06.660Z,1485.00
2023-05-02T08:08:07.653Z,1774.00
2023-05-02T08:09:07.662Z,1606.00
2023-05-02T08:10:07.625Z,1504.00
2023-05-02T08:11:06.647Z,1521.00
2023-05-02T08:12:06.699Z,1541.00
2023-05-02T08:13:06.768Z,1541.00
2023-05-02T08:14:06.829Z,1538.00
2023-05-02T08:15:07.871Z,1532.00
2023-05-02T08:16:06.983Z,1434.00
2023-05-02T08:17:07.997Z,1298.00
2023-05-02T08:18:08.080Z,1206.00
2023-05-02T08:19:08.108Z,1114.00
2023-05-02T08:20:07.148Z,1096.00
2023-05-02T08:21:07.187Z,1088.00
2023-05-02T08:22:08.245Z,1052.00
2023-05-02T08:23:07.313Z,1042.00
2023-05-02T08:24:07.381Z,1061.00
2023-05-02T08:25:07.439Z,1085.00
2023-05-02T08:26:07.466Z,1001.00
2023-05-02T08:27:08.536Z,992.00
2023-05-02T08:28:08.582Z,924.00
2023-05-02T08:29:07.634Z,897.00
2023-05-02T08:30:08.019Z,867.00
2023-05-02T08:31:08.814Z,821.00
2023-05-02T08:32:08.826Z,887.00
2023-05-02T08:33:07.893Z,855.00
2023-05-02T08:34:08.906Z,891.00
2023-05-02T08:35:08.983Z,831.00
2023-05-02T08:36:09.029Z,851.00
2023-05-02T08:37:09.104Z,865.00
2023-05-02T08:38:09.137Z,854.00
2023-05-02T08:39:09.204Z,837.00
2023-05-02T08:40:08.242Z,821.00
2023-05-02T08:41:09.296Z,832.00
2023-05-02T08:42:09.328Z,912.00
2023-05-02T08:43:09.541Z,984.00
2023-05-02T08:44:09.393Z,1287.00
2023-05-02T08:45:09.435Z,1482.00
2023-05-02T08:46:08.496Z,1595.00
2023-05-02T08:47:11.618Z,1638.00
2023-05-02T08:48:09.570Z,1552.00
2023-05-02T08:49:08.468Z,1527.00
2023-05-02T08:50:08.459Z,1529.00
2023-05-02T08:51:08.444Z,1429.00
2023-05-02T08:52:09.442Z,1333.00
2023-05-02T08:53:08.450Z,1219.00
2023-05-02T08:54:09.422Z,988.00
2023-05-02T08:55:09.429Z,1047.00
2023-05-02T08:56:08.415Z,1103.00
2023-05-02T08:57:09.402Z,1166.00
2023-05-02T08:58:09.589Z,1221.00
2023-05-02T08:59:08.400Z,1267.00
2023-05-02T09:00:08.383Z,1445.00
2023-05-02T09:01:09.409Z,1439.00
2023-05-02T09:02:08.382Z,1446.00
2023-05-02T09:03:09.419Z,1430.00
2023-05-02T09:04:09.389Z,1369.00
2023-05-02T09:05:08.359Z,1308.00
2023-05-02T09:06:09.401Z,1261.00
2023-05-02T09:07:08.727Z,1237.00
2023-05-02T09:08:09.322Z,1221.00
2023-05-02T09:09:09.310Z,1181.00
2023-05-02T09:10:09.304Z,1160.00
2023-05-02T09:11:08.300Z,1140.00
2023-05-02T09:12:08.303Z,1123.00
2023-05-02T09:13:09.277Z,1096.00
2023-05-02T09:14:09.262Z,1100.00
2023-05-02T09:15:08.289Z,1077.00
2023-05-02T09:16:09.281Z,1047.00
2023-05-02T09:17:09.475Z,1035.00
2023-05-02T09:18:09.330Z,1044.00
2023-05-02T09:19:08.245Z,1035.00
2023-05-02T09:20:09.223Z,1022.00
2023-05-02T09:21:09.220Z,1044.00
2023-05-02T09:22:08.219Z,1032.00
2023-05-02T09:23:08.203Z,1027.00
2023-05-02T09:24:09.203Z,1004.00
2023-05-02T09:25:08.194Z,1012.00
2023-05-02T09:26:09.189Z,1021.00
2023-05-02T09:27:09.196Z,1033.00
2023-05-02T09:28:09.214Z,1055.00
2023-05-02T09:29:09.226Z,1034.00
2023-05-02T09:30:09.249Z,1043.00
2023-05-02T09:31:09.365Z,1052.00
2023-05-02T09:32:09.357Z,1024.00
2023-05-02T09:33:08.347Z,1044.00
2023-05-02T09:34:08.622Z,1033.00
2023-05-02T09:35:09.330Z,1053.00
2023-05-02T09:36:08.390Z,1057.00
2023-05-02T09:37:09.381Z,1024.00
2023-05-02T09:38:08.394Z,1056.00
2023-05-02T09:39:08.411Z,1038.00
2023-05-02T09:40:08.441Z,1064.00
2023-05-02T09:41:08.446Z,1071.00
2023-05-02T09:42:09.476Z,1001.00
2023-05-02T09:43:09.492Z,1010.00
2023-05-02T09:44:09.517Z,1034.00
2023-05-02T09:45:08.542Z,1018.00
2023-05-02T09:46:08.599Z,1029.00
2023-05-02T09:47:09.621Z,1074.00
2023-05-02T09:48:09.069Z,1077.00
2023-05-02T09:49:09.735Z,1040.00
2023-05-02T09:50:09.797Z,1030.00
2023-05-02T09:51:08.735Z,1040.00
2023-05-02T09:52:08.824Z,1070.00
2023-05-02T09:53:09.904Z,1110.00
2023-05-02T09:54:09.799Z,1132.00
2023-05-02T09:55:08.833Z,1172.00
2023-05-02T09:56:08.913Z,1278.00
2023-05-02T09:57:08.963Z,1269.00
2023-05-02T09:58:09.046Z,1243.00
2023-05-02T09:59:09.041Z,1249.00
2023-05-02T10:00:10.084Z,1193.00
2023-05-02T10:01:09.144Z,1211.00
2023-05-02T10:02:09.159Z,1202.00
2023-05-02T10:03:10.246Z,1154.00
2023-05-02T10:04:10.275Z,1164.00
2023-05-02T10:05:10.259Z,1137.00
2023-05-02T10:06:10.359Z,1133.00
2023-05-02T10:07:09.342Z,1102.00
2023-05-02T10:08:09.366Z,1101.00
2023-05-02T10:09:10.367Z,1097.00
2023-05-02T10:10:10.379Z,1096.00
2023-05-02T10:11:10.410Z,1107.00
2023-05-02T10:12:10.444Z,1110.00
2023-05-02T10:13:10.561Z,1080.00
2023-05-02T10:14:09.474Z,1074.00
2023-05-02T10:15:09.504Z,1059.00
2023-05-02T10:16:09.573Z,1069.00
2023-05-02T10:17:09.534Z,1086.00
2023-05-02T10:18:10.627Z,1061.00
2023-05-02T10:19:10.584Z,1084.00
2023-05-02T10:20:10.624Z,1085.00
2023-05-02T10:21:09.629Z,1061.00
2023-05-02T10:22:10.676Z,1054.00
2023-05-02T10:23:09.672Z,1043.00
2023-05-02T10:24:10.691Z,1026.00
2023-05-02T10:25:10.730Z,1047.00
2023-05-02T10:26:10.731Z,1035.00
2023-05-02T10:27:10.768Z,1026.00
2023-05-02T10:28:10.782Z,1013.00
2023-05-02T10:29:10.832Z,1020.00
2023-05-02T10:30:10.831Z,986.00
2023-05-02T10:31:09.877Z,1039.00
2023-05-02T10:32:10.838Z,1019.00
2023-05-02T10:33:10.918Z,996.00
2023-05-02T10:34:10.884Z,1012.00
2023-05-02T10:35:10.890Z,1022.00
2023-05-02T10:36:10.918Z,984.00
2023-05-02T10:37:09.935Z,978.00
2023-05-02T10:38:10.961Z,1009.00
2023-05-02T10:39:10.920Z,1001.00
2023-05-02T10:40:10.921Z,1015.00
2023-05-02T10:41:09.949Z,1043.00
2023-05-02T10:42:11.002Z,1001.00
2023-05-02T10:43:10.066Z,879.00
2023-05-02T10:44:11.597Z,861.00
2023-05-02T10:45:11.226Z,850.00
2023-05-02T10:46:10.272Z,877.00
2023-05-02T10:47:11.304Z,897.00
2023-05-02T10:48:10.409Z,911.00
2023-05-02T10:49:10.392Z,915.00
2023-05-02T10:50:10.396Z,918.00
2023-05-02T10:51:11.428Z,917.00
2023-05-02T10:52:10.473Z,949.00
2023-05-02T10:53:10.488Z,931.00
2023-05-02T10:54:11.534Z,932.00
2023-05-02T10:55:10.561Z,949.00
2023-05-02T10:56:11.579Z,938.00
2023-05-02T10:57:11.606Z,931.00
2023-05-02T10:58:11.633Z,933.00
2023-05-02T10:59:11.678Z,971.00
2023-05-02T11:00:11.693Z,959.00
2023-05-02T11:01:11.792Z,960.00
2023-05-02T11:02:11.845Z,962.00
2023-05-02T11:03:11.987Z,1015.00
2023-05-02T11:04:11.839Z,965.00
2023-05-02T11:05:11.881Z,999.00
2023-05-02T11:06:10.934Z,975.00
2023-05-02T11:07:11.933Z,949.00
2023-05-02T11:08:11.963Z,962.00
2023-05-02T11:09:10.970Z,960.00
2023-05-02T11:10:12.046Z,945.00
2023-05-02T11:11:12.015Z,962.00
2023-05-02T11:12:12.031Z,944.00
2023-05-02T11:13:11.089Z,884.00
2023-05-02T11:14:11.103Z,879.00
2023-05-02T11:15:14.162Z,895.00
2023-05-02T11:16:12.195Z,903.00
2023-05-02T11:17:12.148Z,1013.00
2023-05-02T11:18:12.228Z,1007.00
2023-05-02T11:19:12.113Z,954.00
2023-05-02T11:20:12.117Z,965.00
2023-05-02T11:21:12.095Z,971.00
2023-05-02T11:22:12.096Z,972.00
2023-05-02T11:23:12.099Z,943.00
2023-05-02T11:24:12.085Z,941.00
2023-05-02T11:25:12.053Z,980.00
2023-05-02T11:26:12.128Z,944.00
2023-05-02T11:27:12.050Z,942.00
2023-05-02T11:28:12.036Z,938.00
2023-05-02T11:29:12.040Z,984.00
2023-05-02T11:30:12.040Z,955.00
2023-05-02T11:31:12.018Z,974.00
2023-05-02T11:32:12.058Z,986.00
2023-05-02T11:33:12.112Z,987.00
2023-05-02T11:34:11.010Z,1015.00
2023-05-02T11:35:11.978Z,998.00
2023-05-02T11:36:11.993Z,1021.00
2023-05-02T11:37:10.965Z,1003.00
2023-05-02T11:38:11.977Z,1051.00
2023-05-02T11:39:12.100Z,1066.00
2023-05-02T11:40:11.993Z,1067.00
2023-05-02T11:41:11.948Z,1111.00
2023-05-02T11:42:11.961Z,1096.00
2023-05-02T11:43:11.949Z,1072.00
2023-05-02T11:44:11.942Z,1030.00
2023-05-02T11:45:11.919Z,1069.00
2023-05-02T11:46:10.922Z,1064.00
2023-05-02T11:47:11.949Z,1034.00
2023-05-02T11:48:11.974Z,1014.00
2023-05-02T11:49:12.724Z,998.00
2023-05-02T11:50:11.920Z,1010.00
2023-05-02T11:51:10.897Z,978.00
2023-05-02T11:52:10.986Z,971.00
2023-05-02T11:53:10.878Z,962.00
2023-05-02T11:54:11.877Z,999.00
2023-05-02T11:55:11.920Z,1002.00
2023-05-02T11:56:10.866Z,967.00
2023-05-02T11:57:10.865Z,996.00
2023-05-02T11:58:10.856Z,980.00
2023-05-02T11:59:11.820Z,969.00
2023-05-02T12:00:11.870Z,959.00
2023-05-02T12:01:11.807Z,1002.00
2023-05-02T12:02:11.902Z,981.00
2023-05-02T12:03:10.910Z,965.00
2023-05-02T12:04:10.829Z,988.00
2023-05-02T12:05:11.887Z,991.00
2023-05-02T12:06:11.070Z,985.00
2023-05-02T12:07:12.314Z,1025.00
2023-05-02T12:08:10.827Z,981.00
2023-05-02T12:09:11.829Z,982.00
2023-05-02T12:10:11.874Z,978.00
2023-05-02T12:11:11.851Z,974.00
2023-05-02T12:12:11.855Z,972.00
2023-05-02T12:13:11.992Z,944.00
2023-05-02T12:14:11.889Z,953.00
2023-05-02T12:15:10.892Z,951.00
2023-05-02T12:16:11.922Z,938.00
2023-05-02T12:17:11.904Z,959.00
2023-05-02T12:18:12.003Z,941.00
2023-05-02T12:19:10.896Z,971.00
2023-05-02T12:20:12.007Z,921.00
2023-05-02T12:21:11.898Z,920.00
2023-05-02T12:22:10.933Z,963.00